Time;durP1;ratioP1;P1;durP2;ratioP2;P2;SDS_P1;SDS_P2;PMS_P1;PMS_P2;Temp;Humidity;BMP_temperature;BMP_pressure;BME280_temperature;BME280_humidity;BME280_pressure;Samples;Min_cycle;Max_cycle;Signal;HPM_P1;HPM_P2
2022/03/28 00:04:46;;;;;;;5.75;3.35;;;;;;;19.61;33.08;102591.09;16159622;19;129521;-47
2022/03/28 00:10:11;;;;;;;7.13;3.08;;;;;;;19.59;32.92;102604.34;16162619;19;130377;-50
2022/03/28 00:15:33;;;;;;;6.70;3.20;;;;;;;19.58;33.03;102593.47;16159583;19;132450;-44
2022/03/28 00:20:55;;;;;;;6.45;3.03;;;;;;;19.56;32.88;102571.47;16162901;19;130062;-45
2022/03/28 00:26:17;;;;;;;3.88;2.72;;;;;;;19.53;32.69;102572.72;16156358;19;130238;-45
2022/03/28 00:31:39;;;;;;;4.97;3.00;;;;;;;19.51;32.92;102568.47;16162725;19;129681;-49
2022/03/28 00:37:02;;;;;;;5.65;3.03;;;;;;;19.49;32.50;102553.94;16163935;19;130004;-48
2022/03/28 00:42:24;;;;;;;7.78;3.30;;;;;;;19.47;32.47;102545.84;16160116;19;129431;-47
2022/03/28 00:47:45;;;;;;;4.57;3.45;;;;;;;19.45;32.49;102538.78;16156124;19;129662;-47
2022/03/28 00:53:14;;;;;;;5.88;3.58;;;;;;;19.44;32.69;102539.88;16160325;19;129380;-45
2022/03/28 00:58:36;;;;;;;4.35;2.90;;;;;;;19.41;32.52;102531.94;16158511;19;130655;-44
2022/03/28 01:03:58;;;;;;;7.53;3.58;;;;;;;19.41;32.43;102529.19;16149986;19;129632;-48
2022/03/28 01:09:20;;;;;;;5.50;3.50;;;;;;;19.38;32.75;102514.66;16144070;19;130893;-47
2022/03/28 01:14:42;;;;;;;5.95;3.40;;;;;;;19.36;32.39;102514.00;16140714;19;129988;-48
2022/03/28 01:20:04;;;;;;;7.13;3.80;;;;;;;19.34;32.28;102513.38;16140989;19;129929;-45
2022/03/28 01:25:29;;;;;;;5.70;3.60;;;;;;;19.33;32.22;102506.09;16138903;19;129929;-43
2022/03/28 01:30:54;;;;;;;5.83;3.73;;;;;;;19.32;32.61;102498.00;16144294;19;129445;-46
2022/03/28 01:36:23;;;;;;;6.30;3.77;;;;;;;19.30;32.55;102501.00;16144542;19;129396;-48
2022/03/28 01:41:46;;;;;;;6.40;4.00;;;;;;;19.28;32.29;102505.91;16144101;19;129967;-50
2022/03/28 01:47:08;;;;;;;6.55;3.53;;;;;;;19.28;32.39;102493.94;16137665;19;130062;-44
2022/03/28 01:52:29;;;;;;;5.45;3.65;;;;;;;19.24;32.64;102490.75;16141127;19;129735;-50
2022/03/28 01:57:52;;;;;;;5.72;3.80;;;;;;;19.24;32.21;102487.13;16140996;19;129934;-45
2022/03/28 02:03:13;;;;;;;6.85;4.07;;;;;;;19.21;32.45;102485.59;16138648;19;129181;-44
2022/03/28 02:08:35;;;;;;;8.32;4.80;;;;;;;19.20;31.95;102478.34;16140919;19;129187;-44
2022/03/28 02:13:57;;;;;;;8.23;4.20;;;;;;;19.18;32.16;102472.16;16135104;19;131514;-43
2022/03/28 02:19:19;;;;;;;8.18;4.40;;;;;;;19.17;32.30;102467.66;16138452;19;130620;-46
2022/03/28 02:24:41;;;;;;;8.05;4.68;;;;;;;19.16;31.97;102465.94;16138299;19;129494;-49
2022/03/28 02:30:05;;;;;;;7.00;4.28;;;;;;;19.14;32.40;102463.38;16140657;19;128871;-49
2022/03/28 02:35:27;;;;;;;6.68;4.40;;;;;;;19.12;32.12;102464.66;16140592;19;129473;-47
2022/03/28 02:40:49;;;;;;;7.05;4.13;;;;;;;19.11;32.14;102454.63;16140273;19;130378;-50
2022/03/28 02:46:10;;;;;;;5.82;3.83;;;;;;;19.10;32.15;102444.59;16135277;19;129234;-42
2022/03/28 02:51:32;;;;;;;6.20;4.20;;;;;;;19.09;32.00;102432.66;16140337;19;129536;-45
2022/03/28 02:56:54;;;;;;;6.32;4.25;;;;;;;19.07;32.10;102429.25;16140821;19;129147;-42
2022/03/28 03:02:16;;;;;;;5.95;4.03;;;;;;;19.06;32.03;102419.22;16140270;19;129976;-44
2022/03/28 03:07:38;;;;;;;6.85;4.38;;;;;;;19.05;32.41;102420.28;16137624;19;129063;-45
2022/03/28 03:13:00;;;;;;;6.13;3.92;;;;;;;19.04;32.37;102410.25;16135199;19;129631;-43
2022/03/28 03:18:22;;;;;;;5.88;3.97;;;;;;;19.03;32.13;102420.50;16136179;19;130682;-44
2022/03/28 03:23:44;;;;;;;5.28;3.83;;;;;;;19.03;32.13;102417.72;16134423;19;129698;-45
2022/03/28 03:29:06;;;;;;;7.47;3.92;;;;;;;19.02;32.05;102426.22;16137265;19;129513;-43
2022/03/28 03:34:28;;;;;;;6.95;3.90;;;;;;;19.00;32.46;102411.75;16136456;19;129922;-50
2022/03/28 03:39:49;;;;;;;6.68;4.25;;;;;;;18.98;32.18;102409.16;16136404;19;129081;-45
2022/03/28 03:45:11;;;;;;;6.75;4.00;;;;;;;18.98;32.32;102400.84;16133104;19;129210;-46
2022/03/28 03:50:33;;;;;;;5.97;3.15;;;;;;;18.97;32.10;102403.84;16131646;19;129972;-46
2022/03/28 03:55:55;;;;;;;5.75;4.05;;;;;;;19.05;32.16;102404.50;16133693;19;129281;-43
2022/03/28 04:01:17;;;;;;;4.60;3.45;;;;;;;19.31;32.23;102391.72;16129709;19;131945;-44
2022/03/28 04:06:39;;;;;;;4.68;2.92;;;;;;;19.84;31.54;102398.19;16128075;19;129589;-43
2022/03/28 04:12:01;;;;;;;5.35;3.15;;;;;;;20.31;30.92;102399.97;16132403;19;129833;-44
2022/03/28 04:17:24;;;;;;;4.65;3.00;;;;;;;20.56;30.46;102386.97;16133589;19;129394;-42
2022/03/28 04:22:46;;;;;;;5.32;3.08;;;;;;;20.67;30.76;102387.34;16132602;19;129558;-43
2022/03/28 04:28:08;;;;;;;5.35;3.10;;;;;;;20.69;30.47;102385.16;16131820;19;129585;-47
2022/03/28 04:33:29;;;;;;;6.22;3.38;;;;;;;20.66;30.44;102385.63;16131533;19;129035;-45
2022/03/28 04:38:51;;;;;;;5.05;3.10;;;;;;;20.57;30.66;102377.56;16136705;19;129266;-43
2022/03/28 04:44:13;;;;;;;4.82;3.17;;;;;;;20.49;30.80;102369.47;16143080;19;129843;-46
2022/03/28 04:49:35;;;;;;;5.68;3.50;;;;;;;20.40;30.66;102366.13;16147087;19;129150;-47
2022/03/28 04:54:57;;;;;;;4.00;2.85;;;;;;;20.29;30.47;102370.47;16145451;19;129439;-46
2022/03/28 05:00:19;;;;;;;5.32;2.95;;;;;;;20.18;31.03;102360.06;16145757;19;129297;-43
2022/03/28 05:05:40;;;;;;;4.28;2.97;;;;;;;20.09;30.99;102361.38;16143239;19;130370;-43
2022/03/28 05:11:05;;;;;;;3.65;2.70;;;;;;;20.01;30.96;102361.63;16144693;19;129965;-46
2022/03/28 05:16:27;;;;;;;4.85;3.08;;;;;;;19.92;30.88;102353.53;16144325;19;129538;-44
2022/03/28 05:21:49;;;;;;;4.47;2.80;;;;;;;19.86;31.26;102351.63;16140547;19;129325;-42
2022/03/28 05:27:11;;;;;;;4.15;3.10;;;;;;;19.80;30.94;102360.84;16140420;19;129986;-46
2022/03/28 05:32:33;;;;;;;4.65;3.20;;;;;;;19.72;31.21;102356.38;16143740;19;129834;-48
2022/03/28 05:37:54;;;;;;;3.83;2.80;;;;;;;19.65;31.40;102353.63;16145195;19;130787;-45
2022/03/28 05:43:17;;;;;;;5.82;3.30;;;;;;;19.59;31.34;102354.47;16142547;19;129193;-49
2022/03/28 05:48:38;;;;;;;5.20;3.15;;;;;;;19.55;31.28;102357.91;16142392;19;129146;-47
2022/03/28 05:54:00;;;;;;;5.68;3.22;;;;;;;19.50;31.34;102359.44;16141451;19;129292;-43
2022/03/28 05:59:22;;;;;;;6.60;2.85;;;;;;;19.47;31.51;102365.44;16138972;19;129598;-44
2022/03/28 06:04:44;;;;;;;5.35;3.70;;;;;;;19.46;31.36;102368.41;16139012;19;130365;-45
2022/03/28 06:10:06;;;;;;;8.43;3.28;;;;;;;19.49;31.36;102359.66;16141344;19;129720;-51
2022/03/28 06:15:29;;;;;;;7.82;3.80;;;;;;;19.62;31.39;102358.78;16133791;19;130588;-49
2022/03/28 06:20:51;;;;;;;10.55;3.80;;;;;;;19.66;31.40;102348.91;16135635;19;130764;-43
2022/03/28 06:26:12;;;;;;;9.70;4.40;;;;;;;19.69;31.22;102348.47;16133116;19;129517;-47
2022/03/28 06:31:34;;;;;;;9.48;3.70;;;;;;;19.78;31.26;102374.09;16142130;19;129373;-47
2022/03/28 06:36:57;;;;;;;8.20;3.60;;;;;;;19.86;31.69;102364.66;16136449;19;129529;-48
2022/03/28 06:42:19;;;;;;;10.23;3.97;;;;;;;19.88;31.43;102363.38;16138169;19;129393;-50
2022/03/28 06:47:41;;;;;;;11.40;3.55;;;;;;;19.91;31.21;102367.63;16135139;19;130204;-48
2022/03/28 06:53:04;;;;;;;7.15;3.40;;;;;;;19.93;31.51;102354.38;16140933;19;129561;-46
2022/03/28 06:58:25;;;;;;;5.63;3.40;;;;;;;19.95;31.60;102355.84;16141720;19;129956;-44
2022/03/28 07:03:47;;;;;;;7.40;3.65;;;;;;;19.98;31.08;102344.31;16138058;19;129436;-46
2022/03/28 07:09:09;;;;;;;8.85;3.45;;;;;;;20.03;31.10;102346.44;16139347;19;129591;-50
2022/03/28 07:14:32;;;;;;;6.72;3.47;;;;;;;20.06;31.10;102339.63;16135882;19;129452;-48
2022/03/28 07:19:54;;;;;;;8.02;3.30;;;;;;;20.09;31.00;102339.16;16132364;19;129009;-46
2022/03/28 07:25:16;;;;;;;12.75;4.45;;;;;;;20.13;31.14;102340.41;16136204;19;129867;-46
2022/03/28 07:30:41;;;;;;;8.13;3.53;;;;;;;20.18;31.03;102334.19;16138556;19;130265;-47
2022/03/28 07:36:04;;;;;;;6.43;3.50;;;;;;;20.22;31.10;102333.50;16137602;19;129794;-46
2022/03/28 07:41:26;;;;;;;10.82;3.63;;;;;;;20.26;30.86;102333.91;16135384;19;129521;-49
2022/03/28 07:46:48;;;;;;;8.25;3.95;;;;;;;20.26;30.47;102331.13;16132822;19;130864;-46
2022/03/28 07:52:10;;;;;;;12.02;5.20;;;;;;;20.28;30.22;102321.53;16132067;19;128861;-50
2022/03/28 07:57:33;;;;;;;17.42;6.18;;;;;;;20.31;30.23;102320.22;16131530;19;129522;-49
2022/03/28 08:02:56;;;;;;;10.82;5.05;;;;;;;20.41;30.41;102314.16;16135806;19;129158;-50
2022/03/28 08:08:19;;;;;;;15.70;5.63;;;;;;;20.56;30.66;102313.84;16128603;19;129296;-44
2022/03/28 08:13:41;;;;;;;12.88;5.60;;;;;;;21.10;30.19;102302.28;16136558;19;129911;-44
2022/03/28 08:19:03;;;;;;;12.57;5.00;;;;;;;21.63;29.56;102300.84;16148301;19;129630;-45
2022/03/28 08:24:25;;;;;;;13.07;4.90;;;;;;;21.52;29.75;102297.75;16150114;19;129454;-47
2022/03/28 08:29:47;;;;;;;13.00;4.50;;;;;;;21.42;29.84;102289.03;16148198;19;129832;-46
2022/03/28 08:35:10;;;;;;;10.32;4.78;;;;;;;21.33;30.35;102280.19;16146225;19;129198;-52
2022/03/28 08:40:32;;;;;;;11.05;4.53;;;;;;;21.27;30.25;102280.25;16146939;19;129417;-50
2022/03/28 08:45:55;;;;;;;10.73;4.82;;;;;;;21.21;30.54;102274.53;16143191;19;129855;-45
2022/03/28 08:51:18;;;;;;;13.57;4.55;;;;;;;21.17;30.92;102269.66;16140389;19;129941;-47
2022/03/28 08:56:40;;;;;;;11.27;4.45;;;;;;;21.13;31.07;102271.19;16146379;19;130055;-47
2022/03/28 09:02:04;;;;;;;9.98;4.30;;;;;;;21.07;31.43;102267.41;16146162;19;130408;-49
2022/03/28 09:07:31;;;;;;;11.82;4.40;;;;;;;21.04;31.15;102265.94;16139235;19;129609;-49
2022/03/28 09:13:02;;;;;;;10.20;4.13;;;;;;;21.02;31.18;102268.09;16142105;19;129909;-43
2022/03/28 09:18:24;;;;;;;11.77;4.45;;;;;;;20.98;31.55;102266.00;16144128;19;129662;-47
2022/03/28 09:23:48;;;;;;;15.75;5.22;;;;;;;20.92;31.45;102250.25;16140525;19;130738;-51
2022/03/28 09:29:10;;;;;;;16.67;6.77;;;;;;;20.85;31.14;102248.38;16131741;19;130282;-52
2022/03/28 09:34:32;;;;;;;13.93;8.50;;;;;;;20.78;30.87;102243.94;16141585;19;129825;-43
2022/03/28 09:39:54;;;;;;;24.02;10.98;;;;;;;20.68;31.20;102247.19;16143453;19;129968;-45
2022/03/28 09:45:38;;;;;;;29.67;13.43;;;;;;;20.63;31.05;102241.50;16143502;19;131509;-42
2022/03/28 09:51:01;;;;;;;24.98;14.10;;;;;;;20.58;30.89;102245.78;16144292;19;129245;-47
2022/03/28 09:56:26;;;;;;;26.15;15.15;;;;;;;20.50;30.84;102225.75;16142750;19;129392;-46
2022/03/28 10:01:48;;;;;;;26.42;16.20;;;;;;;20.42;30.65;102221.38;16137153;19;130591;-46
2022/03/28 10:07:20;;;;;;;23.55;14.25;;;;;;;20.37;31.08;102215.63;16131990;19;129594;-46
2022/03/28 10:12:42;;;;;;;28.13;16.17;;;;;;;20.32;30.86;102213.53;16139050;19;129310;-43
2022/03/28 10:18:04;;;;;;;27.92;15.98;;;;;;;20.29;30.85;102198.16;16135774;19;130035;-46
2022/03/28 10:23:35;;;;;;;22.95;14.23;;;;;;;20.27;30.81;102189.22;16136677;19;130127;-46
2022/03/28 10:29:05;;;;;;;21.27;13.70;;;;;;;20.26;31.03;102184.72;16134652;19;130545;-42
2022/03/28 10:34:47;;;;;;;27.50;14.40;;;;;;;20.23;30.59;102185.16;16142579;19;129647;-47
2022/03/28 10:40:12;;;;;;;22.27;13.05;;;;;;;20.20;30.95;102182.84;16140329;19;130523;-44
2022/03/28 10:45:47;;;;;;;20.02;12.40;;;;;;;20.17;30.74;102172.19;16131377;19;129863;-45
2022/03/28 10:51:15;;;;;;;21.30;11.77;;;;;;;20.16;31.01;102175.19;16136311;19;130506;-51
2022/03/28 10:56:39;;;;;;;16.35;10.88;;;;;;;20.13;31.24;102165.38;16138086;19;129647;-47
2022/03/28 11:02:02;;;;;;;18.57;10.03;;;;;;;20.10;31.01;102165.81;16131753;19;129118;-44
2022/03/28 11:07:24;;;;;;;15.63;10.27;;;;;;;20.08;30.95;102151.31;16134756;19;130193;-48
2022/03/28 11:12:51;;;;;;;13.75;8.88;;;;;;;20.06;31.04;102146.00;16137350;19;129413;-46
2022/03/28 11:18:13;;;;;;;14.15;7.95;;;;;;;20.04;30.89;102144.53;16138227;19;129333;-47
2022/03/28 11:23:37;;;;;;;15.50;8.02;;;;;;;20.03;30.82;102126.16;16136285;19;129303;-49
2022/03/28 11:29:05;;;;;;;11.03;7.07;;;;;;;20.01;31.19;102139.41;16132194;19;129643;-48
2022/03/28 11:34:28;;;;;;;10.55;7.15;;;;;;;19.98;31.14;102141.53;16136822;19;130018;-49
2022/03/28 11:39:54;;;;;;;12.10;6.40;;;;;;;19.98;31.10;102124.88;16138091;19;130050;-48
2022/03/28 11:45:18;;;;;;;12.52;6.43;;;;;;;19.96;31.30;102118.69;16133043;19;129526;-45
2022/03/28 11:50:41;;;;;;;11.83;5.97;;;;;;;19.93;30.95;102102.50;16134470;19;129610;-44
2022/03/28 11:56:03;;;;;;;14.73;5.85;;;;;;;19.93;31.14;102108.03;16133311;19;129414;-47
2022/03/28 12:01:24;;;;;;;12.27;5.78;;;;;;;19.92;31.12;102086.91;16134935;19;129326;-50
2022/03/28 12:06:46;;;;;;;10.10;5.50;;;;;;;19.90;31.01;102083.50;16134320;19;129661;-45
2022/03/28 12:12:09;;;;;;;10.23;5.63;;;;;;;19.89;31.38;102073.47;16133708;19;129117;-48
2022/03/28 12:17:36;;;;;;;9.25;5.25;;;;;;;19.88;30.97;102068.16;16135626;19;129608;-49
2022/03/28 12:22:58;;;;;;;10.57;5.38;;;;;;;19.87;31.22;102070.06;16132191;19;129790;-45
2022/03/28 12:28:35;;;;;;;11.35;5.75;;;;;;;19.86;31.29;102061.97;16127549;19;129518;-48
2022/03/28 12:33:57;;;;;;;9.82;4.95;;;;;;;19.85;31.33;102047.22;16131823;19;129046;-47
2022/03/28 12:39:19;;;;;;;10.25;5.07;;;;;;;19.83;31.55;102041.03;16131314;19;129178;-47
2022/03/28 12:44:41;;;;;;;7.85;4.68;;;;;;;19.83;31.40;102038.25;16132421;19;129722;-44
2022/03/28 12:50:07;;;;;;;8.63;4.25;;;;;;;19.83;31.33;102027.16;16125704;19;129058;-45
2022/03/28 12:55:29;;;;;;;8.35;4.80;;;;;;;19.80;31.09;102009.03;16131377;19;129837;-45
2022/03/28 13:01:03;;;;;;;8.98;4.65;;;;;;;19.80;31.38;102011.78;16139541;19;129356;-48
2022/03/28 13:06:32;;;;;;;9.88;4.78;;;;;;;19.79;31.29;101999.00;16142477;19;129521;-49
2022/03/28 13:11:54;;;;;;;10.15;4.53;;;;;;;19.76;31.10;101996.66;16141486;19;129076;-45
2022/03/28 13:17:18;;;;;;;10.77;6.07;;;;;;;19.78;31.69;101985.34;16147315;19;130475;-48
2022/03/28 13:22:42;;;;;;;12.00;7.07;;;;;;;19.82;31.56;101975.47;16142092;19;130588;-50
2022/03/28 13:28:05;;;;;;;16.83;8.10;;;;;;;19.81;31.21;101971.84;16140950;19;130082;-43
2022/03/28 13:33:27;;;;;;;16.85;9.18;;;;;;;19.83;31.45;101957.72;16145483;19;129994;-51
2022/03/28 13:38:49;;;;;;;21.30;9.02;;;;;;;19.84;31.42;101951.09;16144081;19;130307;-45
2022/03/28 13:44:11;;;;;;;15.45;8.15;;;;;;;19.85;30.97;101952.78;16141264;19;129526;-52
2022/03/28 13:49:33;;;;;;;19.30;9.38;;;;;;;19.84;30.92;101940.84;16138810;19;129750;-51
2022/03/28 13:54:55;;;;;;;13.20;8.30;;;;;;;19.84;30.76;101935.31;16142518;19;129897;-45
2022/03/28 14:00:17;;;;;;;14.60;8.52;;;;;;;19.86;31.13;101928.66;16142549;19;129966;-51
2022/03/28 14:05:58;;;;;;;15.18;8.85;;;;;;;19.83;30.98;101924.41;16142327;19;129276;-47
2022/03/28 14:11:24;;;;;;;17.75;9.00;;;;;;;19.82;30.76;101917.16;16142775;19;129091;-46
2022/03/28 14:16:45;;;;;;;14.85;7.93;;;;;;;19.82;30.90;101908.81;16136309;19;129919;-52
2022/03/28 14:22:07;;;;;;;17.60;8.55;;;;;;;19.83;30.92;101904.97;16139832;19;129308;-49
2022/03/28 14:27:29;;;;;;;18.25;9.63;;;;;;;19.84;30.72;101895.56;16138494;19;130055;-49
2022/03/28 14:32:51;;;;;;;20.77;9.55;;;;;;;19.85;30.92;101883.38;16142106;19;130596;-51
2022/03/28 14:38:13;;;;;;;22.88;10.82;;;;;;;19.88;31.02;101884.88;16134882;19;130855;-51
2022/03/28 14:43:38;;;;;;;21.65;10.90;;;;;;;19.88;31.10;101874.59;16138212;19;130499;-45
2022/03/28 14:48:59;;;;;;;20.58;11.00;;;;;;;19.89;30.65;101869.88;16133878;19;129266;-51
2022/03/28 14:54:21;;;;;;;20.05;11.75;;;;;;;19.89;30.87;101865.19;16138164;19;129542;-46
2022/03/28 14:59:43;;;;;;;19.05;10.25;;;;;;;19.89;30.81;101865.19;16139867;19;129205;-45
2022/03/28 15:05:06;;;;;;;18.48;11.80;;;;;;;19.87;31.08;101867.34;16138733;19;129700;-48
2022/03/28 15:10:30;;;;;;;16.25;11.07;;;;;;;19.85;30.69;101858.38;16133516;19;129194;-46
2022/03/28 15:15:52;;;;;;;24.00;11.70;;;;;;;19.83;30.56;101849.44;16139536;19;129241;-44
2022/03/28 15:21:15;;;;;;;18.52;9.90;;;;;;;19.82;30.78;101844.94;16136958;19;130582;-47
2022/03/28 15:26:37;;;;;;;15.95;9.23;;;;;;;19.81;31.07;101840.50;16137972;19;129896;-47
2022/03/28 15:32:00;;;;;;;16.15;8.02;;;;;;;19.81;30.72;101838.56;16138428;19;130478;-50
2022/03/28 15:37:25;;;;;;;18.50;8.07;;;;;;;19.77;30.86;101834.53;16136431;19;129129;-50
2022/03/28 15:42:47;;;;;;;15.90;7.20;;;;;;;19.75;30.97;101830.31;16137083;19;129611;-49
2022/03/28 15:48:09;;;;;;;14.25;7.30;;;;;;;19.73;31.03;101821.38;16134384;19;129308;-50
2022/03/28 15:53:33;;;;;;;12.85;6.38;;;;;;;19.69;31.19;101815.44;16137736;19;130114;-49
2022/03/28 15:58:56;;;;;;;12.40;6.57;;;;;;;19.66;31.53;101816.75;16135656;19;129625;-48
2022/03/28 16:04:23;;;;;;;18.42;9.07;;;;;;;19.65;31.28;101805.88;16136396;19;129400;-50
2022/03/28 16:09:45;;;;;;;20.70;9.52;;;;;;;19.65;31.64;101812.28;16130695;19;131577;-50
2022/03/28 16:15:07;;;;;;;18.17;8.07;;;;;;;19.82;31.87;101811.63;16135182;19;129548;-48
2022/03/28 16:20:29;;;;;;;17.23;7.57;;;;;;;20.06;31.26;101809.03;16129870;19;129212;-47
2022/03/28 16:25:52;;;;;;;17.35;7.20;;;;;;;20.31;31.39;101799.72;16132372;19;129802;-45
2022/03/28 16:31:21;;;;;;;21.25;8.43;;;;;;;20.47;31.18;101790.66;16124523;19;129652;-49
2022/03/28 16:36:43;;;;;;;21.37;7.67;;;;;;;20.57;31.31;101788.16;16134343;19;130717;-48
2022/03/28 16:42:06;;;;;;;20.08;7.38;;;;;;;20.63;31.51;101780.78;16142057;19;130643;-50
2022/03/28 16:47:29;;;;;;;20.40;7.68;;;;;;;20.61;31.48;101774.66;16137195;19;130056;-48
2022/03/28 16:52:55;;;;;;;16.38;6.90;;;;;;;20.56;31.80;101772.56;16137223;19;130480;-49
2022/03/28 16:58:17;;;;;;;19.75;7.35;;;;;;;20.54;31.57;101771.97;16134006;19;130122;-50
2022/03/28 17:03:39;;;;;;;18.52;6.78;;;;;;;20.53;31.78;101764.72;16138272;19;129856;-44
2022/03/28 17:09:01;;;;;;;17.75;7.10;;;;;;;20.52;31.78;101774.13;16136021;19;130960;-45
2022/03/28 17:14:23;;;;;;;18.95;6.93;;;;;;;20.44;31.76;101769.78;16141242;19;129410;-45
2022/03/28 17:19:46;;;;;;;19.88;6.35;;;;;;;20.41;31.96;101772.19;16144832;19;130435;-50
2022/03/28 17:25:08;;;;;;;13.10;5.65;;;;;;;20.39;32.12;101771.56;16144386;19;130502;-45
2022/03/28 17:30:30;;;;;;;20.35;6.68;;;;;;;20.34;31.80;101774.19;16139938;19;129139;-49
2022/03/28 17:35:51;;;;;;;15.38;6.20;;;;;;;20.31;31.94;101769.97;16140265;19;129259;-50
2022/03/28 17:41:13;;;;;;;15.90;6.55;;;;;;;20.27;32.19;101777.06;16141435;19;130769;-50
2022/03/28 17:46:35;;;;;;;14.57;5.97;;;;;;;20.21;32.29;101766.94;16135108;19;130328;-50
2022/03/28 17:51:58;;;;;;;10.60;5.28;;;;;;;20.16;32.01;101758.44;16140742;19;129658;-44
2022/03/28 17:57:20;;;;;;;12.57;5.38;;;;;;;20.09;32.22;101756.63;16141875;19;129453;-45
2022/03/28 18:02:42;;;;;;;12.82;5.80;;;;;;;20.07;32.71;101755.16;16143540;19;129082;-47
2022/03/28 18:08:04;;;;;;;14.20;5.72;;;;;;;20.10;32.75;101761.09;16141208;19;129811;-46
2022/03/28 18:13:26;;;;;;;13.65;5.60;;;;;;;20.16;32.56;101756.53;16142722;19;129958;-49
2022/03/28 18:18:48;;;;;;;9.93;5.18;;;;;;;20.19;32.41;101758.81;16143036;19;129817;-50
2022/03/28 18:24:10;;;;;;;12.55;5.13;;;;;;;20.23;32.67;101748.94;16141295;19;130086;-45
2022/03/28 18:29:31;;;;;;;13.20;5.20;;;;;;;20.24;32.55;101747.84;16135189;19;129405;-45
2022/03/28 18:34:53;;;;;;;12.98;5.00;;;;;;;20.30;32.36;101751.59;16140019;19;131284;-44
2022/03/28 18:40:15;;;;;;;13.45;4.75;;;;;;;20.31;32.53;101746.91;16138129;19;129635;-48
2022/03/28 18:45:38;;;;;;;13.63;5.28;;;;;;;20.32;32.51;101745.81;16135897;19;130196;-52
2022/03/28 18:51:00;;;;;;;15.20;4.72;;;;;;;20.33;32.97;101753.06;16133728;19;129176;-49
2022/03/28 18:56:22;;;;;;;14.38;4.72;;;;;;;20.35;32.78;101750.88;16137264;19;130432;-50
2022/03/28 19:01:44;;;;;;;11.82;5.55;;;;;;;20.38;32.99;101750.41;16142835;19;129258;-51
2022/03/28 19:07:06;;;;;;;12.90;4.78;;;;;;;20.42;33.21;101746.09;16137261;19;130666;-46
2022/03/28 19:12:30;;;;;;;15.40;5.05;;;;;;;20.47;33.09;101734.25;16132303;19;129911;-52
2022/03/28 19:17:52;;;;;;;13.40;5.20;;;;;;;20.50;33.52;101729.06;16139488;19;129385;-51
2022/03/28 19:23:15;;;;;;;19.85;5.25;;;;;;;20.55;33.30;101720.00;16138759;19;130407;-51
2022/03/28 19:28:37;;;;;;;15.32;4.80;;;;;;;20.72;33.43;101720.13;16135166;19;129188;-52
2022/03/28 19:33:59;;;;;;;14.80;4.65;;;;;;;20.91;33.49;101715.31;16137287;19;130279;-48
2022/03/28 19:39:22;;;;;;;16.38;5.30;;;;;;;21.12;33.28;101699.94;16133666;19;130642;-50
2022/03/28 19:44:44;;;;;;;9.27;3.85;;;;;;;21.34;32.83;101710.41;16135651;19;129645;-49
2022/03/28 19:50:07;;;;;;;13.07;4.80;;;;;;;21.48;32.86;101702.59;16133374;19;129881;-47
2022/03/28 19:55:28;;;;;;;11.80;4.25;;;;;;;21.50;33.15;101704.09;16135266;19;129047;-47
2022/03/28 20:00:53;;;;;;;8.95;3.60;;;;;;;21.52;33.08;101703.84;16136056;19;131374;-50
2022/03/28 20:06:15;;;;;;;13.68;4.15;;;;;;;21.51;33.10;101702.16;16135016;19;129424;-50
2022/03/28 20:11:37;;;;;;;19.52;4.90;;;;;;;21.48;33.03;101691.47;16143088;19;130686;-49
2022/03/28 20:17:02;;;;;;;15.60;4.93;;;;;;;21.42;33.03;101686.91;16152306;19;129752;-47
2022/03/28 20:22:24;;;;;;;11.73;5.00;;;;;;;21.35;32.91;101687.06;16148767;19;129919;-44
2022/03/28 20:27:46;;;;;;;12.32;4.68;;;;;;;21.28;33.46;101686.34;16141147;19;129730;-45
2022/03/28 20:33:08;;;;;;;20.58;5.47;;;;;;;21.17;33.38;101688.06;16147397;19;131586;-44
2022/03/28 20:38:30;;;;;;;18.63;5.35;;;;;;;21.08;33.28;101686.75;16146044;19;130891;-49
2022/03/28 20:43:52;;;;;;;12.82;4.70;;;;;;;20.99;33.72;101687.13;16141122;19;131150;-51
2022/03/28 20:49:14;;;;;;;14.50;4.82;;;;;;;20.89;33.37;101684.97;16141191;19;130174;-52
2022/03/28 20:54:35;;;;;;;12.07;4.70;;;;;;;20.81;33.76;101682.53;16146258;19;130614;-47
2022/03/28 20:59:57;;;;;;;11.07;4.93;;;;;;;20.72;33.39;101673.72;16143315;19;130469;-49
2022/03/28 21:05:24;;;;;;;13.90;4.88;;;;;;;20.64;33.73;101668.50;16143362;19;129358;-44
2022/03/28 21:10:46;;;;;;;17.13;5.40;;;;;;;20.55;33.79;101670.81;16138158;19;131627;-49
2022/03/28 21:16:08;;;;;;;13.80;5.70;;;;;;;20.49;33.53;101660.66;16141397;19;129574;-46
2022/03/28 21:21:30;;;;;;;11.13;4.72;;;;;;;20.43;33.54;101659.69;16140697;19;130922;-45
2022/03/28 21:26:52;;;;;;;13.98;5.35;;;;;;;20.38;33.63;101650.38;16142181;19;129683;-48
2022/03/28 21:32:15;;;;;;;11.70;5.15;;;;;;;20.32;33.93;101645.75;16133543;19;130117;-46
2022/03/28 21:37:39;;;;;;;13.63;5.10;;;;;;;20.26;34.09;101648.44;16140692;19;130814;-49
2022/03/28 21:43:01;;;;;;;11.25;5.22;;;;;;;20.22;34.00;101647.22;16139593;19;130266;-50
2022/03/28 21:48:24;;;;;;;12.10;5.50;;;;;;;20.17;34.09;101641.53;16134805;19;129535;-48
2022/03/28 21:53:46;;;;;;;16.08;5.00;;;;;;;20.13;34.12;101632.81;16140543;19;129660;-51
2022/03/28 21:59:07;;;;;;;9.18;4.93;;;;;;;20.10;34.38;101635.22;16141041;19;130843;-48
2022/03/28 22:04:29;;;;;;;12.55;5.13;;;;;;;20.06;33.95;101636.81;16140473;19;130643;-48
2022/03/28 22:09:51;;;;;;;11.27;5.05;;;;;;;20.03;34.38;101637.28;16135656;19;129879;-50
2022/03/28 22:15:13;;;;;;;9.18;5.30;;;;;;;19.96;34.20;101631.81;16136404;19;129928;-47
2022/03/28 22:20:35;;;;;;;11.80;5.80;;;;;;;19.94;33.99;101636.75;16141552;19;129693;-46
2022/03/28 22:25:57;;;;;;;14.55;5.05;;;;;;;19.90;34.17;101636.38;16136701;19;129509;-50
2022/03/28 22:31:19;;;;;;;9.43;4.97;;;;;;;19.88;34.31;101638.56;16134599;19;129683;-48
2022/03/28 22:36:41;;;;;;;11.00;5.18;;;;;;;19.86;34.30;101624.06;16140987;19;129517;-45
2022/03/28 22:42:03;;;;;;;9.07;5.05;;;;;;;19.84;34.45;101621.53;16140517;19;130406;-49
2022/03/28 22:47:24;;;;;;;9.32;4.53;;;;;;;19.82;34.41;101615.34;16135812;19;129572;-49
2022/03/28 22:52:46;;;;;;;10.82;5.30;;;;;;;19.80;34.36;101619.47;16133306;19;129606;-49
2022/03/28 22:58:10;;;;;;;10.02;4.68;;;;;;;19.78;34.14;101613.28;16139198;19;129232;-47
2022/03/28 23:03:32;;;;;;;9.88;4.50;;;;;;;19.76;34.51;101605.19;16139098;19;129990;-47
2022/03/28 23:08:55;;;;;;;9.13;4.70;;;;;;;19.74;34.24;101607.38;16137898;19;129774;-50
2022/03/28 23:14:16;;;;;;;7.38;4.20;;;;;;;19.71;34.18;101606.97;16140240;19;129756;-50
2022/03/28 23:19:38;;;;;;;10.90;5.25;;;;;;;19.69;34.37;101596.97;16135674;19;130152;-44
2022/03/28 23:25:00;;;;;;;9.35;4.90;;;;;;;19.68;34.04;101597.22;16136140;19;130509;-47
2022/03/28 23:30:22;;;;;;;8.63;4.85;;;;;;;19.65;34.04;101581.03;16135049;19;129470;-45
2022/03/28 23:35:44;;;;;;;10.50;4.82;;;;;;;19.63;34.08;101580.44;16137520;19;130406;-44
2022/03/28 23:41:06;;;;;;;8.60;4.63;;;;;;;19.59;34.21;101577.25;16135492;19;129160;-48
2022/03/28 23:46:31;;;;;;;8.48;4.88;;;;;;;19.58;33.98;101564.47;16129178;19;129916;-47
2022/03/28 23:51:53;;;;;;;9.73;4.75;;;;;;;19.55;34.16;101564.97;16130718;19;129539;-47
2022/03/28 23:57:15;;;;;;;9.88;4.93;;;;;;;19.54;34.24;101563.28;16135636;19;129611;-45
